createdAt,value
2022-11-25T09:00:35.771Z,99.90
2022-11-25T09:33:20.133Z,99.90
2022-11-25T09:55:17.325Z,99.90
2022-11-25T10:00:15.310Z,99.90
2022-11-25T10:05:16.854Z,99.90
2022-11-25T10:10:23.479Z,99.90
2022-11-25T10:15:24.718Z,99.90
2022-11-25T10:20:23.762Z,99.90
2022-11-25T10:25:22.064Z,99.90
2022-11-25T10:30:19.929Z,99.90
2022-11-25T10:35:28.335Z,99.90
2022-11-25T10:40:24.017Z,99.90
2022-11-25T10:45:17.782Z,99.90
2022-11-25T10:50:19.045Z,99.90
2022-11-25T10:55:15.564Z,99.90
2022-11-25T11:00:29.649Z,99.90
2022-11-25T11:05:25.896Z,99.90
2022-11-25T11:10:22.853Z,99.90
2022-11-25T11:15:22.202Z,99.90
2022-11-25T11:20:23.424Z,98.90
2022-11-25T11:25:29.193Z,99.00
2022-11-25T11:30:29.803Z,97.60
2022-11-25T11:35:29.488Z,96.50
2022-11-25T11:40:33.841Z,95.60
2022-11-25T11:45:44.801Z,94.40
2022-11-25T11:50:42.317Z,92.70
2022-11-25T11:56:19.039Z,91.20
2022-11-25T12:01:26.667Z,90.80
2022-11-25T12:06:22.816Z,90.40
2022-11-25T12:11:20.437Z,91.00
2022-11-25T12:16:22.020Z,90.10
2022-11-25T12:21:27.848Z,90.70
2022-11-25T12:26:25.941Z,90.70
2022-11-25T12:31:26.466Z,90.10
2022-11-25T12:36:27.904Z,89.50
2022-11-25T12:41:27.126Z,87.20
2022-11-25T12:46:27.041Z,85.20
2022-11-25T12:51:35.569Z,84.10
2022-11-25T12:56:44.297Z,82.90
2022-11-25T13:02:07.807Z,81.40
2022-11-25T13:07:16.825Z,78.10
2022-11-25T13:12:23.572Z,78.40
2022-11-25T13:17:19.817Z,77.30
2022-11-25T13:22:29.955Z,77.50
2022-11-25T13:27:33.109Z,78.70
2022-11-25T13:32:37.396Z,83.80
2022-11-25T13:37:40.142Z,88.10
2022-11-25T13:42:33.752Z,90.90
2022-11-25T13:47:36.769Z,92.60
2022-11-25T13:52:38.189Z,93.60
2022-11-25T13:57:34.877Z,94.30
2022-11-25T14:02:46.291Z,95.10
2022-11-25T14:07:48.524Z,96.20
2022-11-25T14:13:04.192Z,97.60
2022-11-25T14:19:03.176Z,99.30
2022-11-25T14:24:06.410Z,99.90
2022-11-25T14:29:03.926Z,99.90
2022-11-25T14:34:05.115Z,99.90
2022-11-25T14:39:01.826Z,99.90
2022-11-25T14:43:59.785Z,99.90
2022-11-25T14:48:59.950Z,99.90
2022-11-25T14:53:54.726Z,99.90
2022-11-25T14:58:50.554Z,99.90
2022-11-25T15:03:44.496Z,99.90
2022-11-25T15:08:45.582Z,99.90
2022-11-25T15:13:42.367Z,99.90
2022-11-25T15:18:39.404Z,99.90
2022-11-25T15:23:36.455Z,99.90
2022-11-25T15:28:37.494Z,99.90
2022-11-25T15:33:32.221Z,99.90
2022-11-25T15:38:43.671Z,99.90
2022-11-25T15:43:42.305Z,99.90
2022-11-25T15:48:41.261Z,99.90
2022-11-25T15:53:39.331Z,99.90
2022-11-25T15:58:33.201Z,99.90
2022-11-25T16:03:28.492Z,99.90
2022-11-25T16:08:36.602Z,99.90
2022-11-25T16:13:36.688Z,99.90
2022-11-25T16:18:40.926Z,99.90
2022-11-25T16:23:36.801Z,99.90
2022-11-25T16:28:31.600Z,99.90
2022-11-25T16:33:26.069Z,99.90
2022-11-25T16:38:21.338Z,99.90
2022-11-25T16:43:21.558Z,99.90
2022-11-25T16:48:17.957Z,99.90
2022-11-25T16:53:11.993Z,99.90
2022-11-25T16:58:11.925Z,99.90
2022-11-25T17:03:10.922Z,99.90
2022-11-25T17:08:05.124Z,99.90
2022-11-25T17:12:58.937Z,99.90
2022-11-25T17:17:53.941Z,99.90
2022-11-25T17:22:47.430Z,99.90
